Home   Weather   Benidorm   Past weeks
Flag for Spain

Past Weather in Benidorm, Alicante, Spain — Yesterday and Last 2 Weeks

Currently: 59 °F. Scattered clouds. (Weather station: Alicante / El Altet, Spain). See more current weather

Past Weather in Benidorm — Graph

°F

Benidorm Temperature Yesterday

Maximum temperature yesterday: 61 °F (at 2:30 pm)
Minimum temperature yesterday: 46 °F (at 2:00 am)
Average temperature yesterday: 51 °F

High & Low Weather Summary for the Past Weeks

 TemperatureHumidityPressure
High72 °F (Nov 14, 2:30 pm)100% (Nov 23, 3:30 am)30.33 "Hg (Nov 23, 3:30 am)
Low43 °F (Nov 25, 4:30 am)32% (Nov 15, 12:30 pm)29.62 "Hg (Nov 27, 2:00 pm)
Average57 °F68%29.98 "Hg
* Reported Nov 12 3:00 pm — Nov 27 3:30 pm, Benidorm. Weather by CustomWeather, © 2021

Note: Actual official high and low records may vary slightly from our data, if they occured in-between our weather recording intervals... More about our weather records

Benidorm Weather History for the Previous 24 Hours

Scroll right to see more
 ConditionsComfort  
Time TempWeatherWind HumidityBarometerVisibility
3:30 pm
Sat, Nov 27
59 °FScattered clouds.14 mph42%29.62 "HgN/A
3:00 pm64 °FPassing clouds.17 mph32%29.62 "HgN/A
2:30 pm63 °FPassing clouds.16 mph37%29.62 "HgN/A
2:00 pm63 °FPassing clouds.14 mph34%29.62 "HgN/A
1:30 pm63 °FPassing clouds.17 mph34%29.65 "HgN/A
12:30 pm61 °FPassing clouds.14 mph39%29.68 "HgN/A
12:00 pm59 °FSunny.13 mph42%29.68 "Hg10 mi
11:30 am59 °FPassing clouds.15 mph42%29.71 "HgN/A
11:00 am57 °FSunny.15 mph41%29.71 "Hg10 mi
10:30 am55 °FPassing clouds.18 mph44%29.71 "HgN/A
10:00 am52 °FPassing clouds.9 mph50%29.71 "HgN/A
9:30 am50 °FPassing clouds.9 mph54%29.71 "HgN/A
9:00 am48 °FPassing clouds.12 mph54%29.68 "HgN/A
8:30 am48 °FPassing clouds.8 mph54%29.68 "HgN/A
8:00 am48 °FSunny.10 mph54%29.71 "Hg10 mi
7:30 am45 °FPassing clouds.3 mph61%29.71 "HgN/A
7:00 am46 °FClear.2 mph57%29.71 "Hg10 mi
6:30 am45 °FClear.7 mph66%29.71 "Hg10 mi
6:00 am50 °FPassing clouds.16 mph50%29.71 "HgN/A
5:30 am48 °FClear.13 mph54%29.71 "Hg10 mi
5:00 am46 °FClear.13 mph57%29.74 "Hg10 mi
4:30 am48 °FClear.10 mph54%29.74 "Hg10 mi
4:00 am46 °FClear.10 mph57%29.74 "Hg10 mi
3:30 am48 °FClear.12 mph54%29.74 "Hg10 mi
3:00 am48 °FClear.10 mph54%29.74 "Hg10 mi
2:30 am50 °FClear.12 mph50%29.77 "Hg10 mi
2:00 am50 °FClear.12 mph50%29.77 "Hg10 mi
1:30 am50 °FClear.20 mph50%29.77 "Hg10 mi
1:00 am50 °FClear.20 mph54%29.77 "Hg10 mi
12:30 am46 °FClear.9 mph66%29.77 "Hg10 mi
12:00 am45 °FClear.9 mph71%29.77 "Hg10 mi
11:30 pm
Fri, Nov 26
46 °FPassing clouds.5 mph66%29.77 "HgN/A
10:30 pm52 °FClear.9 mph54%29.77 "Hg10 mi
10:00 pm50 °FPassing clouds.8 mph58%29.77 "HgN/A
9:30 pm54 °FClear.12 mph47%29.77 "Hg10 mi
9:00 pm52 °FPassing clouds.9 mph54%29.77 "HgN/A
8:30 pm52 °FClear.9 mph58%29.77 "Hg10 mi
8:00 pm54 °FClear.10 mph54%29.77 "Hg10 mi
7:30 pm54 °FPassing clouds.10 mph54%29.77 "HgN/A
7:00 pm52 °FPassing clouds.9 mph62%29.74 "HgN/A
6:30 pm55 °FClear.12 mph51%29.74 "Hg10 mi
4:00 pm61 °FPassing clouds.13 mph39%29.71 "HgN/A
Weather by CustomWeather, © 2021

See weather overview